Mount Rainier, Maryland
Current Conditions -  °F | °C
As of 4:15 PM on Saturday 22 Nov 2014 (Local Time) from KCGS Reporting Station
Broken Clouds Broken Clouds  
Wind Chill: 50°   Ceiling: 10000
Heat Index: 50°   Visibility: 10mi
Dew Point: 14°   Wind: 7mph
Humidity: 24%   Direction: 200°SSW
Pressure: 30.31"   Gusts: NA
Location:  38.94°N, 76.96°W
Report Text: KCGS 222115Z AUTO 20006KT 10SM BKN100 10/M10 A3031 RMK AO1
Loading
Personal Weather Stations






























Interactive Weather Map New forecast layout! Learn more

10-Day Weather Forecast

Advertisements
Track Severe Weather on mobile